中部国際空港の過去48時間の天気

中部国際空港 (Chubu Centrair International)

現在時刻: 10/14 11:09 JST (10/14 02:09 UTC) 以下の時間は現地時間です。

過去48時間のMETAR気象情報
時間 風向 風速(m/s) 視程 気温(℃) 湿度(%) 気圧(hPa) 天気現象
14 10:30 北北西 3 10km以上 20 73 1018 周辺でしゅう雨
14 10:00 北北西 4 10km以上 20 73 1018 周辺でしゅう雨
14 09:30 3 10km以上 20 78 1018 周辺でしゅう雨
14 09:00 北北西 3 10km以上 19 78 1019 弱いしゅう雨
14 08:30 北北西 3 10km以上 20 73 1019 弱いしゅう雨
14 08:00 北西 5 10km以上 20 68 1018 弱いしゅう雨
14 07:30 5 10km以上 20 73 1018 弱いしゅう雨
14 07:00 4 10km以上 20 68 1018
14 06:30 4 10km以上 20 68 1018
14 06:00 4 10km以上 19 68 1018
14 05:30 6 10km以上 20 64 1018
14 05:00 5 10km以上 19 73 1018
14 04:30 5 10km以上 20 68 1018
14 04:00 4 10km以上 20 64 1017
14 03:30 4 10km以上 20 68 1017
14 03:00 北北西 4 10km以上 20 68 1017
14 02:30 西北西 4 10km以上 20 73 1017
14 02:00 北北西 4 10km以上 20 68 1018
14 01:30 北北西 4 10km以上 20 64 1018
14 01:00 北北西 3 10km以上 20 68 1018 周辺でしゅう雨
14 00:30 4 10km以上 20 64 1018 周辺でしゅう雨
14 00:00 4 10km以上 20 64 1018
13 23:30 4 10km以上 20 68 1018
13 23:00 3 10km以上 20 64 1018
13 22:30 北北西 3 10km以上 20 68 1018
13 22:00 北西 5 10km以上 20 68 1018
13 21:30 北北西 6 10km以上 20 73 1018
13 21:00 北北西 6 10km以上 20 68 1017
13 20:30 北西 7 10km以上 20 68 1017
13 20:00 北西 7 10km以上 21 64 1017
13 19:30 北西 8 10km以上 21 69 1016
13 19:00 北西 6 10km以上 21 69 1016
13 18:30 西北西 5 10km以上 21 69 1016
13 18:00 西北西 8 10km以上 21 69 1015
13 17:30 西 9 10km以上 21 69 1015
13 17:00 西 8 10km以上 22 65 1014
13 16:30 北西 9 10km以上 22 65 1014
13 16:00 西北西 10 10km以上 23 61 1013
13 15:30 西北西 10 10km以上 23 61 1012
13 15:00 北西 10 10km以上 23 61 1012
13 14:30 北西 11 10km以上 24 57 1012
13 14:00 北西 10 10km以上 24 57 1012
13 13:30 西北西 10 10km以上 24 57 1012
13 13:00 北西 9 10km以上 24 61 1012
13 12:30 北西 10 10km以上 24 61 1012
13 12:00 北西 11 10km以上 24 57 1011
13 11:30 北西 12 10km以上 24 61 1011
13 11:00 北西 13 10km以上 24 61 1011
13 10:30 北西 14 10km以上 23 65 1011
13 10:00 北西 15 10km以上 23 65 1010
13 09:30 北西 13 10km以上 23 65 1011
13 09:00 北西 16 10km以上 23 65 1010
13 08:30 北西 15 10km以上 22 69 1009
13 08:00 北西 13 10km以上 22 69 1010
13 07:30 北西 15 10km以上 22 69 1009
13 07:00 北西 15 10km以上 22 69 1008
13 06:30 北西 15 10km以上 22 69 1007
13 06:00 北西 14 10km以上 22 73 1007
13 05:30 北西 16 10km以上 21 78 1005
13 05:00 北西 15 10km以上 22 73 1005
13 04:30 北西 17 10km以上 22 73 1003
RJGG 140130Z 34006KT 9999 VCSH FEW015 BKN040 20/15 Q1018 NOSIG
RJGG 140100Z 33007KT 9999 VCSH FEW015 BKN040 20/15 Q1018 NOSIG
RJGG 140030Z 35005KT 9999 VCSH FEW020 BKN040 20/16 Q1018 NOSIG
RJGG 140000Z 33005KT 9999 -SHRA FEW020 BKN035 19/15 Q1019 NOSIG
RJGG 132330Z 33006KT 9999 -SHRA FEW020 SCT030 BKN050 20/15 Q1019 NOSIG
RJGG 132300Z 32009KT 9999 -SHRA FEW020 SCT030 BKN045 20/14 Q1018 NOSIG
RJGG 132230Z 35010KT 9999 -SHRA FEW020 BKN045 20/15 Q1018 NOSIG
RJGG 132200Z 35008KT 9999 FEW020 BKN040 20/14 Q1018 NOSIG
RJGG 132130Z 36008KT 9999 FEW020 BKN040 20/14 Q1018 NOSIG
RJGG 132100Z 01008KT 9999 FEW020 BKN040 19/13 Q1018 NOSIG
RJGG 132030Z 01011KT 9999 FEW020 BKN040 20/13 Q1018 NOSIG
RJGG 132000Z 35010KT 9999 FEW020 BKN040 19/14 Q1018 NOSIG
RJGG 131930Z 35009KT 9999 FEW020 BKN040 20/14 Q1018 NOSIG
RJGG 131900Z 36008KT 9999 FEW020 BKN040 20/13 Q1017 NOSIG
RJGG 131830Z 35007KT 9999 FEW020 BKN040 20/14 Q1017 NOSIG
RJGG 131800Z 34008KT 9999 FEW020 BKN050 20/14 Q1017 NOSIG
RJGG 131730Z 30007KT 9999 FEW020 BKN050 20/15 Q1017 NOSIG
RJGG 131700Z 33007KT 9999 FEW020 BKN060 20/14 Q1018 NOSIG
RJGG 131630Z 34007KT 9999 FEW020 BKN060 20/13 Q1018 NOSIG
RJGG 131600Z 34006KT 9999 VCSH FEW020 SCT040 BKN050 20/14 Q1018 NOSIG
RJGG 131530Z 35008KT 9999 VCSH FEW020 BKN045 BKN060 20/13 Q1018 NOSIG
RJGG 131500Z 36007KT 9999 FEW020 BKN040 20/13 Q1018 NOSIG
RJGG 131430Z 35008KT 9999 FEW020 BKN040 20/14 Q1018 NOSIG
RJGG 131400Z 36006KT 9999 FEW020 BKN045 20/13 Q1018 NOSIG
RJGG 131330Z 34006KT 9999 FEW020 SCT045 20/14 Q1018 NOSIG
RJGG 131300Z 32010KT 9999 FEW020 BKN050 20/14 Q1018 NOSIG
RJGG 131230Z 33011KT 9999 FEW020 BKN050 20/15 Q1018 NOSIG
RJGG 131200Z 33012KT 9999 FEW020 SCT050 20/14 Q1017 NOSIG
RJGG 131130Z 32013KT 9999 FEW020 SCT100 20/14 Q1017 NOSIG
RJGG 131100Z 32014KT 9999 FEW020 SCT080 21/14 Q1017 NOSIG
RJGG 131030Z 31015KT 9999 FEW020 BKN080 21/15 Q1016 NOSIG
RJGG 131000Z 31012KT 9999 FEW020 BKN080 21/15 Q1016 NOSIG
RJGG 130930Z 29009KT 9999 FEW020 SCT070 21/15 Q1016 NOSIG
RJGG 130900Z 29015KT 9999 FEW020 SCT070 21/15 Q1015 NOSIG
RJGG 130830Z 27017KT 9999 FEW020 21/15 Q1015 NOSIG
RJGG 130800Z 27016KT 9999 FEW020 22/15 Q1014 NOSIG
RJGG 130730Z 31017KT 9999 FEW020 22/15 Q1014 NOSIG
RJGG 130700Z 30019KT 9999 FEW020 23/15 Q1013 NOSIG
RJGG 130630Z 30019KT 9999 FEW020 23/15 Q1012 NOSIG
RJGG 130600Z 31020KT 9999 FEW020 23/15 Q1012 NOSIG
RJGG 130530Z 31021KT 9999 FEW020 24/15 Q1012 NOSIG
RJGG 130500Z 31020KT 9999 FEW020 24/15 Q1012 NOSIG
RJGG 130430Z 30020KT 9999 FEW020 24/15 Q1012 NOSIG
RJGG 130400Z 31018KT 9999 FEW020 24/16 Q1012 NOSIG
RJGG 130330Z 31019KT 9999 FEW020 24/16 Q1012 NOSIG
RJGG 130300Z 32022KT 9999 FEW020 24/15 Q1011 NOSIG
RJGG 130230Z 31023KT 9999 FEW020 24/16 Q1011 NOSIG
RJGG 130200Z 31026KT 9999 FEW020 24/16 Q1011 NOSIG
RJGG 130130Z 31027KT 9999 FEW020 23/16 Q1011 NOSIG
RJGG 130100Z 31029KT 9999 FEW020 23/16 Q1010 NOSIG
RJGG 130030Z 32026KT 9999 FEW020 23/16 Q1011 NOSIG
RJGG 130000Z 31031KT 9999 FEW020 23/16 Q1010 NOSIG
RJGG 122330Z 32030KT 9999 FEW020 22/16 Q1009 NOSIG
RJGG 122300Z 31026KT 9999 FEW020 22/16 Q1010 NOSIG
RJGG 122230Z 32029KT 9999 FEW020 22/16 Q1009 NOSIG
RJGG 122200Z 32030KT 9999 FEW020 22/16 Q1008 TEMPO 32035G45KT
RJGG 122130Z 32029KT 9999 FEW020 22/16 Q1007 TEMPO 32035G45KT
RJGG 122100Z 31028KT 9999 FEW020 22/17 Q1007 TEMPO 32035G45KT
RJGG 122030Z 31032KT 9999 FEW020 21/17 Q1005 NOSIG
RJGG 122000Z 31029KT 9999 FEW020 22/17 Q1005 NOSIG
RJGG 121930Z 31033KT 9999 FEW020 22/17 Q1003 TEMPO 30035G45KT